sensor_id;sensor_type;location;lat;lon;timestamp;P1;durP1;ratioP1;P2;durP2;ratioP2
43883;SDS011;29544;52.018;5.810;2023-04-09T00:00:32;8.30;;;6.70;;
43883;SDS011;29544;52.018;5.810;2023-04-09T00:02:58;8.47;;;7.20;;
43883;SDS011;29544;52.018;5.810;2023-04-09T00:05:23;7.63;;;6.60;;
43883;SDS011;29544;52.018;5.810;2023-04-09T00:07:49;9.07;;;6.60;;
43883;SDS011;29544;52.018;5.810;2023-04-09T00:10:15;7.25;;;6.55;;
43883;SDS011;29544;52.018;5.810;2023-04-09T00:12:40;9.47;;;7.33;;
43883;SDS011;29544;52.018;5.810;2023-04-09T00:15:06;8.40;;;7.17;;
43883;SDS011;29544;52.018;5.810;2023-04-09T00:17:32;9.52;;;7.13;;
43883;SDS011;29544;52.018;5.810;2023-04-09T00:19:58;9.47;;;7.57;;
43883;SDS011;29544;52.018;5.810;2023-04-09T00:22:23;9.03;;;7.43;;
43883;SDS011;29544;52.018;5.810;2023-04-09T00:24:49;7.80;;;7.00;;
43883;SDS011;29544;52.018;5.810;2023-04-09T00:27:15;8.88;;;7.75;;
43883;SDS011;29544;52.018;5.810;2023-04-09T00:29:40;9.40;;;7.30;;
43883;SDS011;29544;52.018;5.810;2023-04-09T00:32:06;7.93;;;6.33;;
43883;SDS011;29544;52.018;5.810;2023-04-09T00:34:31;7.90;;;7.10;;
43883;SDS011;29544;52.018;5.810;2023-04-09T00:36:57;8.40;;;7.13;;
43883;SDS011;29544;52.018;5.810;2023-04-09T00:39:22;9.30;;;7.07;;
43883;SDS011;29544;52.018;5.810;2023-04-09T00:41:48;7.40;;;6.60;;
43883;SDS011;29544;52.018;5.810;2023-04-09T00:44:13;8.50;;;6.63;;
43883;SDS011;29544;52.018;5.810;2023-04-09T00:46:39;7.30;;;6.37;;
43883;SDS011;29544;52.018;5.810;2023-04-09T00:49:05;8.67;;;6.80;;
43883;SDS011;29544;52.018;5.810;2023-04-09T00:51:30;8.23;;;6.93;;
43883;SDS011;29544;52.018;5.810;2023-04-09T00:53:57;9.48;;;7.38;;
43883;SDS011;29544;52.018;5.810;2023-04-09T00:56:22;8.53;;;7.07;;
43883;SDS011;29544;52.018;5.810;2023-04-09T00:58:49;7.07;;;6.28;;
43883;SDS011;29544;52.018;5.810;2023-04-09T01:01:14;7.03;;;6.17;;
43883;SDS011;29544;52.018;5.810;2023-04-09T01:03:40;8.80;;;6.47;;
43883;SDS011;29544;52.018;5.810;2023-04-09T01:06:10;7.90;;;6.30;;
43883;SDS011;29544;52.018;5.810;2023-04-09T01:11:31;7.60;;;6.65;;
43883;SDS011;29544;52.018;5.810;2023-04-09T01:17:02;7.60;;;6.38;;
43883;SDS011;29544;52.018;5.810;2023-04-09T01:19:33;8.90;;;7.35;;
43883;SDS011;29544;52.018;5.810;2023-04-09T01:28:13;8.07;;;6.68;;
43883;SDS011;29544;52.018;5.810;2023-04-09T01:30:40;8.05;;;6.78;;
43883;SDS011;29544;52.018;5.810;2023-04-09T01:33:11;7.15;;;6.28;;
43883;SDS011;29544;52.018;5.810;2023-04-09T01:35:40;6.78;;;6.07;;
43883;SDS011;29544;52.018;5.810;2023-04-09T01:38:08;8.35;;;6.65;;
43883;SDS011;29544;52.018;5.810;2023-04-09T01:40:36;8.05;;;6.40;;
43883;SDS011;29544;52.018;5.810;2023-04-09T01:43:02;7.70;;;6.63;;
43883;SDS011;29544;52.018;5.810;2023-04-09T01:45:29;9.20;;;6.97;;
43883;SDS011;29544;52.018;5.810;2023-04-09T01:47:55;7.37;;;6.10;;
43883;SDS011;29544;52.018;5.810;2023-04-09T01:50:21;8.00;;;6.93;;
43883;SDS011;29544;52.018;5.810;2023-04-09T01:52:47;7.47;;;6.53;;
43883;SDS011;29544;52.018;5.810;2023-04-09T01:55:13;7.30;;;6.43;;
43883;SDS011;29544;52.018;5.810;2023-04-09T01:57:38;8.10;;;6.43;;
43883;SDS011;29544;52.018;5.810;2023-04-09T02:00:04;9.63;;;6.73;;
43883;SDS011;29544;52.018;5.810;2023-04-09T02:02:41;8.07;;;6.60;;
43883;SDS011;29544;52.018;5.810;2023-04-09T02:05:17;8.88;;;6.85;;
43883;SDS011;29544;52.018;5.810;2023-04-09T02:07:44;8.07;;;6.57;;
43883;SDS011;29544;52.018;5.810;2023-04-09T02:10:13;7.47;;;6.60;;
43883;SDS011;29544;52.018;5.810;2023-04-09T02:12:42;7.15;;;6.38;;
43883;SDS011;29544;52.018;5.810;2023-04-09T02:15:12;7.57;;;6.38;;
43883;SDS011;29544;52.018;5.810;2023-04-09T02:20:04;7.85;;;6.63;;
43883;SDS011;29544;52.018;5.810;2023-04-09T02:22:30;7.88;;;6.55;;
43883;SDS011;29544;52.018;5.810;2023-04-09T02:24:56;8.67;;;6.77;;
43883;SDS011;29544;52.018;5.810;2023-04-09T02:27:21;7.73;;;6.50;;
43883;SDS011;29544;52.018;5.810;2023-04-09T02:29:47;11.23;;;7.50;;
43883;SDS011;29544;52.018;5.810;2023-04-09T02:32:12;7.43;;;6.57;;
43883;SDS011;29544;52.018;5.810;2023-04-09T02:34:38;7.53;;;6.20;;
43883;SDS011;29544;52.018;5.810;2023-04-09T02:37:03;7.53;;;6.13;;
43883;SDS011;29544;52.018;5.810;2023-04-09T02:39:29;8.33;;;6.53;;
43883;SDS011;29544;52.018;5.810;2023-04-09T02:41:54;7.70;;;6.70;;
43883;SDS011;29544;52.018;5.810;2023-04-09T02:44:20;7.07;;;6.17;;
43883;SDS011;29544;52.018;5.810;2023-04-09T02:46:45;7.40;;;6.10;;
43883;SDS011;29544;52.018;5.810;2023-04-09T02:49:12;7.97;;;6.57;;
43883;SDS011;29544;52.018;5.810;2023-04-09T02:51:38;7.27;;;6.07;;
43883;SDS011;29544;52.018;5.810;2023-04-09T02:54:03;8.03;;;6.17;;
43883;SDS011;29544;52.018;5.810;2023-04-09T02:56:29;7.57;;;6.40;;
43883;SDS011;29544;52.018;5.810;2023-04-09T02:58:54;6.63;;;5.93;;
43883;SDS011;29544;52.018;5.810;2023-04-09T03:01:20;7.63;;;6.20;;
43883;SDS011;29544;52.018;5.810;2023-04-09T03:03:45;8.17;;;6.73;;
43883;SDS011;29544;52.018;5.810;2023-04-09T03:06:12;7.53;;;5.90;;
43883;SDS011;29544;52.018;5.810;2023-04-09T03:08:38;7.73;;;6.17;;
43883;SDS011;29544;52.018;5.810;2023-04-09T03:11:03;8.60;;;6.97;;
43883;SDS011;29544;52.018;5.810;2023-04-09T03:13:29;7.82;;;6.82;;
43883;SDS011;29544;52.018;5.810;2023-04-09T03:15:55;6.83;;;5.97;;
43883;SDS011;29544;52.018;5.810;2023-04-09T03:18:20;9.00;;;6.77;;
43883;SDS011;29544;52.018;5.810;2023-04-09T03:20:46;8.83;;;6.17;;
43883;SDS011;29544;52.018;5.810;2023-04-09T03:23:11;7.57;;;6.27;;
43883;SDS011;29544;52.018;5.810;2023-04-09T03:25:37;7.57;;;6.10;;
43883;SDS011;29544;52.018;5.810;2023-04-09T03:28:02;7.57;;;6.47;;
43883;SDS011;29544;52.018;5.810;2023-04-09T03:30:28;7.17;;;6.13;;
43883;SDS011;29544;52.018;5.810;2023-04-09T03:32:54;8.55;;;7.03;;
43883;SDS011;29544;52.018;5.810;2023-04-09T03:35:19;7.50;;;5.97;;
43883;SDS011;29544;52.018;5.810;2023-04-09T03:37:45;7.40;;;6.57;;
43883;SDS011;29544;52.018;5.810;2023-04-09T03:40:11;8.23;;;6.17;;
43883;SDS011;29544;52.018;5.810;2023-04-09T03:42:37;8.93;;;6.57;;
43883;SDS011;29544;52.018;5.810;2023-04-09T03:45:03;8.70;;;6.97;;
43883;SDS011;29544;52.018;5.810;2023-04-09T03:47:29;8.20;;;6.13;;
43883;SDS011;29544;52.018;5.810;2023-04-09T03:49:55;8.27;;;6.13;;
43883;SDS011;29544;52.018;5.810;2023-04-09T03:52:20;7.07;;;5.83;;
43883;SDS011;29544;52.018;5.810;2023-04-09T03:54:46;7.37;;;6.43;;
43883;SDS011;29544;52.018;5.810;2023-04-09T03:57:11;7.53;;;6.30;;
43883;SDS011;29544;52.018;5.810;2023-04-09T03:59:37;7.40;;;6.27;;
43883;SDS011;29544;52.018;5.810;2023-04-09T04:02:02;7.13;;;5.97;;
43883;SDS011;29544;52.018;5.810;2023-04-09T04:04:28;8.23;;;6.40;;
43883;SDS011;29544;52.018;5.810;2023-04-09T04:06:53;7.00;;;5.80;;
43883;SDS011;29544;52.018;5.810;2023-04-09T04:09:19;10.10;;;7.23;;
43883;SDS011;29544;52.018;5.810;2023-04-09T04:11:44;7.90;;;6.53;;
43883;SDS011;29544;52.018;5.810;2023-04-09T04:14:10;9.70;;;6.40;;
43883;SDS011;29544;52.018;5.810;2023-04-09T04:16:35;7.97;;;6.80;;
43883;SDS011;29544;52.018;5.810;2023-04-09T04:19:01;8.63;;;7.03;;
43883;SDS011;29544;52.018;5.810;2023-04-09T04:21:26;8.27;;;6.63;;
43883;SDS011;29544;52.018;5.810;2023-04-09T04:23:52;7.50;;;6.03;;
43883;SDS011;29544;52.018;5.810;2023-04-09T04:26:17;9.07;;;7.13;;
43883;SDS011;29544;52.018;5.810;2023-04-09T04:28:43;7.57;;;6.50;;
43883;SDS011;29544;52.018;5.810;2023-04-09T04:31:09;8.77;;;6.97;;
43883;SDS011;29544;52.018;5.810;2023-04-09T04:33:36;8.13;;;6.20;;
43883;SDS011;29544;52.018;5.810;2023-04-09T04:36:06;8.40;;;6.47;;
43883;SDS011;29544;52.018;5.810;2023-04-09T04:38:33;7.07;;;5.85;;
43883;SDS011;29544;52.018;5.810;2023-04-09T04:40:59;8.63;;;7.03;;
43883;SDS011;29544;52.018;5.810;2023-04-09T04:43:25;9.77;;;8.05;;
43883;SDS011;29544;52.018;5.810;2023-04-09T04:45:50;8.63;;;6.73;;
43883;SDS011;29544;52.018;5.810;2023-04-09T04:48:16;8.73;;;7.30;;
43883;SDS011;29544;52.018;5.810;2023-04-09T04:50:41;8.30;;;6.50;;
43883;SDS011;29544;52.018;5.810;2023-04-09T04:53:07;7.90;;;6.97;;
43883;SDS011;29544;52.018;5.810;2023-04-09T04:55:36;8.47;;;7.03;;
43883;SDS011;29544;52.018;5.810;2023-04-09T04:58:03;7.82;;;6.78;;
43883;SDS011;29544;52.018;5.810;2023-04-09T05:00:29;8.38;;;7.03;;
43883;SDS011;29544;52.018;5.810;2023-04-09T05:02:55;8.55;;;7.25;;
43883;SDS011;29544;52.018;5.810;2023-04-09T05:05:21;9.40;;;7.47;;
43883;SDS011;29544;52.018;5.810;2023-04-09T05:07:46;8.47;;;6.77;;
43883;SDS011;29544;52.018;5.810;2023-04-09T05:10:12;9.20;;;7.43;;
43883;SDS011;29544;52.018;5.810;2023-04-09T05:12:37;7.77;;;6.37;;
43883;SDS011;29544;52.018;5.810;2023-04-09T05:15:03;7.53;;;6.33;;
43883;SDS011;29544;52.018;5.810;2023-04-09T05:17:29;8.73;;;6.65;;
43883;SDS011;29544;52.018;5.810;2023-04-09T05:19:54;8.40;;;6.60;;
43883;SDS011;29544;52.018;5.810;2023-04-09T05:22:21;7.82;;;6.40;;
43883;SDS011;29544;52.018;5.810;2023-04-09T05:24:47;7.60;;;6.20;;
43883;SDS011;29544;52.018;5.810;2023-04-09T05:27:12;9.00;;;7.13;;
43883;SDS011;29544;52.018;5.810;2023-04-09T05:29:38;9.10;;;7.00;;
43883;SDS011;29544;52.018;5.810;2023-04-09T05:32:04;8.33;;;6.33;;
43883;SDS011;29544;52.018;5.810;2023-04-09T05:34:30;7.22;;;6.00;;
43883;SDS011;29544;52.018;5.810;2023-04-09T05:36:56;8.93;;;7.53;;
43883;SDS011;29544;52.018;5.810;2023-04-09T05:39:22;8.03;;;6.90;;
43883;SDS011;29544;52.018;5.810;2023-04-09T05:41:47;8.87;;;7.17;;
43883;SDS011;29544;52.018;5.810;2023-04-09T05:44:13;8.63;;;6.43;;
43883;SDS011;29544;52.018;5.810;2023-04-09T05:46:38;9.27;;;5.83;;
43883;SDS011;29544;52.018;5.810;2023-04-09T05:49:04;8.83;;;6.10;;
43883;SDS011;29544;52.018;5.810;2023-04-09T05:51:30;9.83;;;6.80;;
43883;SDS011;29544;52.018;5.810;2023-04-09T05:53:55;6.67;;;5.83;;
43883;SDS011;29544;52.018;5.810;2023-04-09T05:56:21;8.03;;;5.93;;
43883;SDS011;29544;52.018;5.810;2023-04-09T05:58:47;9.10;;;5.93;;
43883;SDS011;29544;52.018;5.810;2023-04-09T06:01:13;8.93;;;6.07;;
43883;SDS011;29544;52.018;5.810;2023-04-09T06:03:39;8.85;;;7.35;;
43883;SDS011;29544;52.018;5.810;2023-04-09T06:06:04;9.90;;;6.40;;
43883;SDS011;29544;52.018;5.810;2023-04-09T06:08:30;9.70;;;7.50;;
43883;SDS011;29544;52.018;5.810;2023-04-09T06:10:56;8.10;;;6.03;;
43883;SDS011;29544;52.018;5.810;2023-04-09T06:13:22;7.25;;;5.50;;
43883;SDS011;29544;52.018;5.810;2023-04-09T06:15:48;9.60;;;5.97;;
43883;SDS011;29544;52.018;5.810;2023-04-09T06:18:14;7.05;;;5.80;;
43883;SDS011;29544;52.018;5.810;2023-04-09T06:20:40;7.95;;;5.85;;
43883;SDS011;29544;52.018;5.810;2023-04-09T06:23:05;8.87;;;5.73;;
43883;SDS011;29544;52.018;5.810;2023-04-09T06:25:31;5.93;;;5.17;;
43883;SDS011;29544;52.018;5.810;2023-04-09T06:27:57;7.07;;;5.53;;
43883;SDS011;29544;52.018;5.810;2023-04-09T06:30:22;7.43;;;6.43;;
43883;SDS011;29544;52.018;5.810;2023-04-09T06:32:48;9.23;;;6.97;;
43883;SDS011;29544;52.018;5.810;2023-04-09T06:37:40;9.73;;;6.65;;
43883;SDS011;29544;52.018;5.810;2023-04-09T06:40:06;7.27;;;6.17;;
43883;SDS011;29544;52.018;5.810;2023-04-09T06:42:32;7.57;;;6.00;;
43883;SDS011;29544;52.018;5.810;2023-04-09T06:44:57;7.80;;;6.33;;
43883;SDS011;29544;52.018;5.810;2023-04-09T06:47:23;8.33;;;6.63;;
43883;SDS011;29544;52.018;5.810;2023-04-09T06:49:49;8.50;;;6.43;;
43883;SDS011;29544;52.018;5.810;2023-04-09T06:52:14;8.13;;;6.50;;
43883;SDS011;29544;52.018;5.810;2023-04-09T06:54:40;8.93;;;5.70;;
43883;SDS011;29544;52.018;5.810;2023-04-09T06:57:06;9.18;;;6.03;;
43883;SDS011;29544;52.018;5.810;2023-04-09T06:59:32;8.90;;;6.25;;
43883;SDS011;29544;52.018;5.810;2023-04-09T07:01:58;7.90;;;6.53;;
43883;SDS011;29544;52.018;5.810;2023-04-09T07:06:50;7.75;;;6.53;;
43883;SDS011;29544;52.018;5.810;2023-04-09T07:09:18;11.35;;;6.82;;
43883;SDS011;29544;52.018;5.810;2023-04-09T07:11:44;8.67;;;6.53;;
43883;SDS011;29544;52.018;5.810;2023-04-09T07:14:09;10.53;;;7.60;;
43883;SDS011;29544;52.018;5.810;2023-04-09T07:16:35;8.87;;;7.13;;
43883;SDS011;29544;52.018;5.810;2023-04-09T07:19:00;9.57;;;7.17;;
43883;SDS011;29544;52.018;5.810;2023-04-09T07:21:26;8.17;;;6.67;;
43883;SDS011;29544;52.018;5.810;2023-04-09T07:23:52;9.45;;;6.90;;
43883;SDS011;29544;52.018;5.810;2023-04-09T07:26:18;8.27;;;6.45;;
43883;SDS011;29544;52.018;5.810;2023-04-09T07:28:43;10.47;;;7.53;;
43883;SDS011;29544;52.018;5.810;2023-04-09T07:31:09;10.50;;;7.70;;
43883;SDS011;29544;52.018;5.810;2023-04-09T07:33:35;9.27;;;7.60;;
43883;SDS011;29544;52.018;5.810;2023-04-09T07:36:00;10.27;;;7.73;;
43883;SDS011;29544;52.018;5.810;2023-04-09T07:38:27;10.10;;;7.23;;
43883;SDS011;29544;52.018;5.810;2023-04-09T07:40:53;9.00;;;7.15;;
43883;SDS011;29544;52.018;5.810;2023-04-09T07:43:19;8.50;;;6.97;;
43883;SDS011;29544;52.018;5.810;2023-04-09T07:45:47;8.50;;;7.30;;
43883;SDS011;29544;52.018;5.810;2023-04-09T07:48:13;9.82;;;7.82;;
43883;SDS011;29544;52.018;5.810;2023-04-09T07:50:39;9.40;;;7.40;;
43883;SDS011;29544;52.018;5.810;2023-04-09T07:53:04;9.37;;;8.37;;
43883;SDS011;29544;52.018;5.810;2023-04-09T07:55:30;10.50;;;8.27;;
43883;SDS011;29544;52.018;5.810;2023-04-09T07:57:55;12.40;;;7.93;;
43883;SDS011;29544;52.018;5.810;2023-04-09T08:00:21;10.33;;;7.70;;
43883;SDS011;29544;52.018;5.810;2023-04-09T08:02:46;9.97;;;7.40;;
43883;SDS011;29544;52.018;5.810;2023-04-09T08:05:12;8.27;;;7.30;;
43883;SDS011;29544;52.018;5.810;2023-04-09T08:07:37;11.80;;;8.67;;
43883;SDS011;29544;52.018;5.810;2023-04-09T08:10:04;9.93;;;7.40;;
43883;SDS011;29544;52.018;5.810;2023-04-09T08:12:30;9.50;;;7.63;;
43883;SDS011;29544;52.018;5.810;2023-04-09T08:14:56;9.73;;;7.57;;
43883;SDS011;29544;52.018;5.810;2023-04-09T08:17:21;8.43;;;6.63;;
43883;SDS011;29544;52.018;5.810;2023-04-09T08:19:47;10.43;;;7.93;;
43883;SDS011;29544;52.018;5.810;2023-04-09T08:22:13;10.45;;;7.32;;
43883;SDS011;29544;52.018;5.810;2023-04-09T08:24:39;9.20;;;7.25;;
43883;SDS011;29544;52.018;5.810;2023-04-09T08:27:07;10.00;;;6.75;;
43883;SDS011;29544;52.018;5.810;2023-04-09T08:29:32;9.63;;;7.73;;
43883;SDS011;29544;52.018;5.810;2023-04-09T08:31:58;9.38;;;7.55;;
43883;SDS011;29544;52.018;5.810;2023-04-09T08:34:24;9.33;;;7.60;;
43883;SDS011;29544;52.018;5.810;2023-04-09T08:36:49;9.77;;;7.53;;
43883;SDS011;29544;52.018;5.810;2023-04-09T08:39:15;10.67;;;7.43;;
43883;SDS011;29544;52.018;5.810;2023-04-09T08:41:44;8.82;;;6.40;;
43883;SDS011;29544;52.018;5.810;2023-04-09T08:44:10;10.38;;;7.68;;
43883;SDS011;29544;52.018;5.810;2023-04-09T08:46:35;8.63;;;7.13;;
43883;SDS011;29544;52.018;5.810;2023-04-09T08:49:01;9.90;;;7.73;;
43883;SDS011;29544;52.018;5.810;2023-04-09T08:51:27;9.73;;;7.88;;
43883;SDS011;29544;52.018;5.810;2023-04-09T08:53:57;8.43;;;6.57;;
43883;SDS011;29544;52.018;5.810;2023-04-09T08:56:24;10.18;;;7.90;;
43883;SDS011;29544;52.018;5.810;2023-04-09T08:58:50;9.45;;;7.35;;
43883;SDS011;29544;52.018;5.810;2023-04-09T09:06:22;9.95;;;7.25;;
43883;SDS011;29544;52.018;5.810;2023-04-09T09:09:10;8.48;;;6.85;;
43883;SDS011;29544;52.018;5.810;2023-04-09T09:11:36;9.23;;;6.97;;
43883;SDS011;29544;52.018;5.810;2023-04-09T09:14:07;9.95;;;7.10;;
43883;SDS011;29544;52.018;5.810;2023-04-09T09:16:34;9.57;;;7.78;;
43883;SDS011;29544;52.018;5.810;2023-04-09T09:19:04;9.07;;;6.90;;
43883;SDS011;29544;52.018;5.810;2023-04-09T09:21:29;8.87;;;7.60;;
43883;SDS011;29544;52.018;5.810;2023-04-09T09:23:55;8.80;;;7.37;;
43883;SDS011;29544;52.018;5.810;2023-04-09T09:26:22;7.85;;;6.63;;
43883;SDS011;29544;52.018;5.810;2023-04-09T09:28:49;9.20;;;7.15;;
43883;SDS011;29544;52.018;5.810;2023-04-09T09:31:17;8.55;;;7.15;;
43883;SDS011;29544;52.018;5.810;2023-04-09T09:33:44;9.88;;;6.93;;
43883;SDS011;29544;52.018;5.810;2023-04-09T09:36:10;8.73;;;6.80;;
43883;SDS011;29544;52.018;5.810;2023-04-09T09:41:18;8.63;;;6.47;;
43883;SDS011;29544;52.018;5.810;2023-04-09T09:43:44;7.70;;;6.38;;
43883;SDS011;29544;52.018;5.810;2023-04-09T09:46:10;8.83;;;7.03;;
43883;SDS011;29544;52.018;5.810;2023-04-09T09:48:36;8.65;;;6.85;;
43883;SDS011;29544;52.018;5.810;2023-04-09T09:51:03;8.25;;;6.45;;
43883;SDS011;29544;52.018;5.810;2023-04-09T09:53:37;7.90;;;6.60;;
43883;SDS011;29544;52.018;5.810;2023-04-09T09:56:04;8.10;;;6.25;;
43883;SDS011;29544;52.018;5.810;2023-04-09T09:58:31;8.95;;;6.25;;
43883;SDS011;29544;52.018;5.810;2023-04-09T10:01:01;9.02;;;6.80;;
43883;SDS011;29544;52.018;5.810;2023-04-09T10:03:33;7.30;;;6.00;;
43883;SDS011;29544;52.018;5.810;2023-04-09T10:06:01;8.80;;;6.53;;
43883;SDS011;29544;52.018;5.810;2023-04-09T10:08:28;8.48;;;6.32;;
43883;SDS011;29544;52.018;5.810;2023-04-09T10:10:57;9.02;;;6.15;;
43883;SDS011;29544;52.018;5.810;2023-04-09T10:13:24;10.40;;;6.33;;
43883;SDS011;29544;52.018;5.810;2023-04-09T10:15:56;8.48;;;5.72;;
43883;SDS011;29544;52.018;5.810;2023-04-09T10:18:22;10.20;;;5.75;;
43883;SDS011;29544;52.018;5.810;2023-04-09T10:20:49;9.73;;;5.63;;
43883;SDS011;29544;52.018;5.810;2023-04-09T10:23:23;11.73;;;6.25;;
43883;SDS011;29544;52.018;5.810;2023-04-09T10:25:56;9.27;;;5.63;;
43883;SDS011;29544;52.018;5.810;2023-04-09T10:28:22;9.05;;;5.82;;
43883;SDS011;29544;52.018;5.810;2023-04-09T10:30:48;11.97;;;5.70;;
43883;SDS011;29544;52.018;5.810;2023-04-09T10:33:14;7.00;;;5.50;;
43883;SDS011;29544;52.018;5.810;2023-04-09T10:35:45;6.45;;;5.38;;
43883;SDS011;29544;52.018;5.810;2023-04-09T10:40:46;7.30;;;5.40;;
43883;SDS011;29544;52.018;5.810;2023-04-09T10:43:13;7.47;;;4.93;;
43883;SDS011;29544;52.018;5.810;2023-04-09T10:45:43;7.72;;;5.65;;
43883;SDS011;29544;52.018;5.810;2023-04-09T10:48:12;7.10;;;5.03;;
43883;SDS011;29544;52.018;5.810;2023-04-09T10:50:38;9.27;;;6.43;;
43883;SDS011;29544;52.018;5.810;2023-04-09T10:53:06;7.55;;;5.60;;
43883;SDS011;29544;52.018;5.810;2023-04-09T10:55:47;7.85;;;5.30;;
43883;SDS011;29544;52.018;5.810;2023-04-09T10:58:14;11.00;;;5.50;;
43883;SDS011;29544;52.018;5.810;2023-04-09T11:00:40;8.30;;;5.13;;
43883;SDS011;29544;52.018;5.810;2023-04-09T11:05:33;9.50;;;5.30;;
43883;SDS011;29544;52.018;5.810;2023-04-09T11:10:29;7.00;;;4.97;;
43883;SDS011;29544;52.018;5.810;2023-04-09T11:12:56;6.47;;;5.05;;
43883;SDS011;29544;52.018;5.810;2023-04-09T11:15:21;5.33;;;4.57;;
43883;SDS011;29544;52.018;5.810;2023-04-09T11:17:48;6.57;;;4.83;;
43883;SDS011;29544;52.018;5.810;2023-04-09T11:20:20;5.72;;;4.68;;
43883;SDS011;29544;52.018;5.810;2023-04-09T11:22:51;5.85;;;4.75;;
43883;SDS011;29544;52.018;5.810;2023-04-09T11:25:18;6.00;;;4.32;;
43883;SDS011;29544;52.018;5.810;2023-04-09T11:27:49;8.07;;;4.85;;
43883;SDS011;29544;52.018;5.810;2023-04-09T11:30:15;9.20;;;4.68;;
43883;SDS011;29544;52.018;5.810;2023-04-09T11:32:40;5.57;;;4.33;;
43883;SDS011;29544;52.018;5.810;2023-04-09T11:35:16;6.20;;;4.45;;
43883;SDS011;29544;52.018;5.810;2023-04-09T11:40:23;5.18;;;4.18;;
43883;SDS011;29544;52.018;5.810;2023-04-09T11:42:50;5.97;;;4.13;;
43883;SDS011;29544;52.018;5.810;2023-04-09T11:45:17;4.47;;;3.70;;
43883;SDS011;29544;52.018;5.810;2023-04-09T11:50:09;5.60;;;4.07;;
43883;SDS011;29544;52.018;5.810;2023-04-09T11:52:36;5.68;;;3.83;;
43883;SDS011;29544;52.018;5.810;2023-04-09T11:55:02;6.68;;;3.63;;
43883;SDS011;29544;52.018;5.810;2023-04-09T12:00:11;5.40;;;4.30;;
43883;SDS011;29544;52.018;5.810;2023-04-09T12:02:43;5.72;;;3.75;;
43883;SDS011;29544;52.018;5.810;2023-04-09T12:05:20;11.32;;;6.03;;
43883;SDS011;29544;52.018;5.810;2023-04-09T12:10:12;13.00;;;6.82;;
43883;SDS011;29544;52.018;5.810;2023-04-09T12:12:39;10.83;;;5.90;;
43883;SDS011;29544;52.018;5.810;2023-04-09T12:17:52;10.77;;;5.80;;
43883;SDS011;29544;52.018;5.810;2023-04-09T12:22:58;11.27;;;5.95;;
43883;SDS011;29544;52.018;5.810;2023-04-09T12:25:27;12.40;;;5.78;;
43883;SDS011;29544;52.018;5.810;2023-04-09T12:27:54;10.05;;;5.45;;
43883;SDS011;29544;52.018;5.810;2023-04-09T12:30:20;11.40;;;5.90;;
43883;SDS011;29544;52.018;5.810;2023-04-09T12:32:46;11.10;;;5.23;;
43883;SDS011;29544;52.018;5.810;2023-04-09T12:35:12;11.13;;;5.70;;
43883;SDS011;29544;52.018;5.810;2023-04-09T12:37:38;9.30;;;5.60;;
43883;SDS011;29544;52.018;5.810;2023-04-09T12:40:04;11.37;;;5.50;;
43883;SDS011;29544;52.018;5.810;2023-04-09T12:42:30;8.93;;;5.22;;
43883;SDS011;29544;52.018;5.810;2023-04-09T12:44:56;7.57;;;4.60;;
43883;SDS011;29544;52.018;5.810;2023-04-09T12:47:21;6.17;;;4.33;;
43883;SDS011;29544;52.018;5.810;2023-04-09T12:49:47;7.17;;;4.70;;
43883;SDS011;29544;52.018;5.810;2023-04-09T12:54:40;8.88;;;4.95;;
43883;SDS011;29544;52.018;5.810;2023-04-09T12:57:05;9.00;;;4.60;;
43883;SDS011;29544;52.018;5.810;2023-04-09T12:59:31;8.48;;;4.28;;
43883;SDS011;29544;52.018;5.810;2023-04-09T13:01:57;7.80;;;4.37;;
43883;SDS011;29544;52.018;5.810;2023-04-09T13:04:22;7.53;;;4.20;;
43883;SDS011;29544;52.018;5.810;2023-04-09T13:06:48;10.07;;;4.53;;
43883;SDS011;29544;52.018;5.810;2023-04-09T13:09:14;6.68;;;4.55;;
43883;SDS011;29544;52.018;5.810;2023-04-09T13:11:39;5.40;;;3.77;;
43883;SDS011;29544;52.018;5.810;2023-04-09T13:14:05;5.47;;;4.10;;
43883;SDS011;29544;52.018;5.810;2023-04-09T13:16:31;6.93;;;3.93;;
43883;SDS011;29544;52.018;5.810;2023-04-09T13:18:58;6.03;;;4.15;;
43883;SDS011;29544;52.018;5.810;2023-04-09T13:21:23;5.90;;;4.13;;
43883;SDS011;29544;52.018;5.810;2023-04-09T13:23:50;7.00;;;4.00;;
43883;SDS011;29544;52.018;5.810;2023-04-09T13:26:15;5.53;;;3.80;;
43883;SDS011;29544;52.018;5.810;2023-04-09T13:28:41;5.97;;;4.07;;
43883;SDS011;29544;52.018;5.810;2023-04-09T13:31:07;6.57;;;3.90;;
43883;SDS011;29544;52.018;5.810;2023-04-09T13:33:32;6.03;;;3.47;;
43883;SDS011;29544;52.018;5.810;2023-04-09T13:35:58;5.53;;;3.77;;
43883;SDS011;29544;52.018;5.810;2023-04-09T13:38:23;6.60;;;3.97;;
43883;SDS011;29544;52.018;5.810;2023-04-09T13:40:49;6.15;;;3.80;;
43883;SDS011;29544;52.018;5.810;2023-04-09T13:43:14;6.27;;;4.13;;
43883;SDS011;29544;52.018;5.810;2023-04-09T13:45:40;5.87;;;4.23;;
43883;SDS011;29544;52.018;5.810;2023-04-09T13:48:06;6.93;;;4.20;;
43883;SDS011;29544;52.018;5.810;2023-04-09T13:50:31;5.37;;;4.07;;
43883;SDS011;29544;52.018;5.810;2023-04-09T13:52:57;5.85;;;4.13;;
43883;SDS011;29544;52.018;5.810;2023-04-09T13:55:22;6.43;;;4.17;;
43883;SDS011;29544;52.018;5.810;2023-04-09T13:57:48;4.87;;;3.70;;
43883;SDS011;29544;52.018;5.810;2023-04-09T14:00:14;5.22;;;3.92;;
43883;SDS011;29544;52.018;5.810;2023-04-09T14:02:39;6.18;;;4.18;;
43883;SDS011;29544;52.018;5.810;2023-04-09T14:05:05;4.70;;;4.13;;
43883;SDS011;29544;52.018;5.810;2023-04-09T14:07:31;6.07;;;4.25;;
43883;SDS011;29544;52.018;5.810;2023-04-09T14:09:57;5.47;;;3.83;;
43883;SDS011;29544;52.018;5.810;2023-04-09T14:12:22;4.90;;;3.90;;
43883;SDS011;29544;52.018;5.810;2023-04-09T14:14:48;4.67;;;3.60;;
43883;SDS011;29544;52.018;5.810;2023-04-09T14:17:13;5.10;;;3.63;;
43883;SDS011;29544;52.018;5.810;2023-04-09T14:19:40;5.47;;;4.05;;
43883;SDS011;29544;52.018;5.810;2023-04-09T14:22:05;7.33;;;3.87;;
43883;SDS011;29544;52.018;5.810;2023-04-09T14:24:32;5.25;;;4.03;;
43883;SDS011;29544;52.018;5.810;2023-04-09T14:27:03;6.03;;;4.05;;
43883;SDS011;29544;52.018;5.810;2023-04-09T14:29:32;5.47;;;3.78;;
43883;SDS011;29544;52.018;5.810;2023-04-09T14:31:58;5.13;;;3.65;;
43883;SDS011;29544;52.018;5.810;2023-04-09T14:36:50;5.00;;;3.78;;
43883;SDS011;29544;52.018;5.810;2023-04-09T14:39:16;7.33;;;4.43;;
43883;SDS011;29544;52.018;5.810;2023-04-09T14:41:41;6.70;;;4.33;;
43883;SDS011;29544;52.018;5.810;2023-04-09T14:44:07;6.50;;;4.50;;
43883;SDS011;29544;52.018;5.810;2023-04-09T14:46:33;8.33;;;4.23;;
43883;SDS011;29544;52.018;5.810;2023-04-09T14:49:00;8.05;;;4.22;;
43883;SDS011;29544;52.018;5.810;2023-04-09T14:51:26;5.53;;;3.67;;
43883;SDS011;29544;52.018;5.810;2023-04-09T14:53:54;5.97;;;4.10;;
43883;SDS011;29544;52.018;5.810;2023-04-09T14:56:20;6.07;;;4.65;;
43883;SDS011;29544;52.018;5.810;2023-04-09T14:58:46;4.97;;;3.83;;
43883;SDS011;29544;52.018;5.810;2023-04-09T15:01:11;7.00;;;4.30;;
43883;SDS011;29544;52.018;5.810;2023-04-09T15:03:37;8.07;;;3.70;;
43883;SDS011;29544;52.018;5.810;2023-04-09T15:06:05;8.18;;;4.53;;
43883;SDS011;29544;52.018;5.810;2023-04-09T15:08:31;5.57;;;3.65;;
43883;SDS011;29544;52.018;5.810;2023-04-09T15:10:57;4.67;;;3.50;;
43883;SDS011;29544;52.018;5.810;2023-04-09T15:13:22;8.93;;;3.70;;
43883;SDS011;29544;52.018;5.810;2023-04-09T15:15:48;4.27;;;3.50;;
43883;SDS011;29544;52.018;5.810;2023-04-09T15:18:14;6.13;;;3.78;;
43883;SDS011;29544;52.018;5.810;2023-04-09T15:20:40;4.78;;;3.45;;
43883;SDS011;29544;52.018;5.810;2023-04-09T15:23:07;4.93;;;3.50;;
43883;SDS011;29544;52.018;5.810;2023-04-09T15:25:33;8.80;;;4.05;;
43883;SDS011;29544;52.018;5.810;2023-04-09T15:28:00;4.93;;;3.23;;
43883;SDS011;29544;52.018;5.810;2023-04-09T15:30:26;4.13;;;3.40;;
43883;SDS011;29544;52.018;5.810;2023-04-09T15:32:51;5.07;;;3.50;;
43883;SDS011;29544;52.018;5.810;2023-04-09T15:35:17;5.53;;;4.07;;